Time;durP1;ratioP1;P1;durP2;ratioP2;P2;SDS_P1;SDS_P2;PMS_P1;PMS_P2;Temp;Humidity;BMP_temperature;BMP_pressure;BME280_temperature;BME280_humidity;BME280_pressure;Samples;Min_cycle;Max_cycle;Signal;HPM_P1;HPM_P2
2024/02/04 00:20:16;;;;;;;4.23;2.30;;;7.40;99.90;;;;;;4647714;30;20262;-87
2024/02/04 00:35:42;;;;;;;5.83;2.50;;;7.20;99.90;;;;;;4675701;30;20228;-87
2024/02/04 00:56:02;;;;;;;7.40;2.73;;;6.50;99.90;;;;;;4745190;29;20245;-85
2024/02/04 01:36:36;;;;;;;8.83;3.10;;;6.20;99.90;;;;;;4800279;29;20251;-87
2024/02/04 02:01:31;;;;;;;8.80;3.53;;;6.30;99.90;;;;;;4648478;29;20578;-85
2024/02/04 02:22:05;;;;;;;10.60;3.30;;;6.10;99.90;;;;;;4721683;29;20202;-85
2024/02/04 02:52:07;;;;;;;5.67;3.10;;;6.40;99.90;;;;;;4722898;29;20222;-84
2024/02/04 03:12:54;;;;;;;8.37;3.30;;;6.70;99.90;;;;;;4737569;29;20197;-88
2024/02/04 03:42:41;;;;;;;5.20;2.40;;;6.80;99.90;;;;;;4728186;29;20561;-88
2024/02/04 04:03:18;;;;;;;9.33;2.73;;;6.90;99.90;;;;;;4676466;29;20316;-86
2024/02/04 04:08:42;;;;;;;5.87;2.63;;;7.00;99.90;;;;;;5757500;23;20461;-86
2024/02/04 04:39:02;;;;;;;5.37;2.40;;;6.80;99.90;;;;;;4843118;29;20380;-86
2024/02/04 05:34:07;;;;;;;3.23;1.90;;;6.20;97.40;;;;;;4811738;29;20734;-85
2024/02/04 06:05:05;;;;;;;6.47;2.57;;;5.90;99.90;;;;;;4761485;29;20207;-86
2024/02/04 06:29:58;;;;;;;5.47;2.20;;;5.50;99.90;;;;;;4569590;30;20720;-86
2024/02/04 06:45:44;;;;;;;8.90;2.90;;;5.50;99.90;;;;;;4573157;30;20795;-84
2024/02/04 07:10:57;;;;;;;7.37;2.30;;;5.50;99.90;;;;;;4558432;30;20231;-85
2024/02/04 07:31:27;;;;;;;8.20;2.60;;;5.60;99.90;;;;;;4542836;30;20309;-83
2024/02/04 07:35:47;;;;;;;10.27;2.60;;;5.70;99.90;;;;;;4477512;30;20656;-85
2024/02/04 08:41:56;;;;;;;7.43;3.27;;;6.20;99.90;;;;;;4549463;30;21415;-85
2024/02/04 08:57:35;;;;;;;8.27;3.07;;;6.30;99.90;;;;;;4627527;29;20229;-83
2024/02/04 09:27:47;;;;;;;6.57;2.93;;;6.40;99.90;;;;;;4724171;29;20242;-84
2024/02/04 09:53:28;;;;;;;7.67;2.87;;;6.70;96.50;;;;;;4698716;29;20204;-86
2024/02/04 09:57:47;;;;;;;5.63;2.70;;;6.70;96.20;;;;;;4615988;29;20463;-86
2024/02/04 10:18:05;;;;;;;12.87;3.57;;;6.80;97.80;;;;;;4534720;30;21080;-85
2024/02/04 10:58:42;;;;;;;10.17;3.77;;;6.90;97.50;;;;;;4564078;30;20589;-87
2024/02/04 11:34:44;;;;;;;10.23;3.43;;;6.10;99.90;;;;;;4806858;29;20382;-87
2024/02/04 12:10:14;;;;;;;7.03;4.10;;;5.70;99.90;;;;;;4769202;29;20234;-87
2024/02/04 12:40:36;;;;;;;8.23;4.47;;;5.90;99.90;;;;;;4758592;29;20248;-86
2024/02/04 13:15:41;;;;;;;13.03;4.83;;;6.30;99.90;;;;;;4642262;30;20720;-86
2024/02/04 13:36:10;;;;;;;9.87;4.97;;;6.10;99.90;;;;;;4744205;29;20785;-85
2024/02/04 13:51:30;;;;;;;6.70;4.30;;;6.10;99.90;;;;;;5894439;23;21162;-85
2024/02/04 14:22:13;;;;;;;8.20;4.17;;;6.20;99.90;;;;;;4810632;29;21550;-85
2024/02/04 14:26:33;;;;;;;6.67;3.63;;;6.40;99.90;;;;;;4746454;29;20437;-85
2024/02/04 14:57:36;;;;;;;8.17;3.73;;;6.60;99.90;;;;;;4774165;29;20774;-86
2024/02/04 15:22:22;;;;;;;4.87;3.10;;;6.80;99.90;;;;;;4590182;30;20489;-88
2024/02/04 15:43:12;;;;;;;6.20;3.50;;;6.80;99.90;;;;;;4594455;30;20209;-86
2024/02/04 17:09:35;;;;;;;6.20;3.50;;;6.90;99.90;;;;;;4707393;29;20352;-85
2024/02/04 18:25:39;;;;;;;9.90;3.00;;;6.80;99.90;;;;;;4878050;28;20274;-86
2024/02/04 18:55:56;;;;;;;3.93;2.80;;;7.00;99.90;;;;;;4819154;29;20242;-87
2024/02/04 19:51:20;;;;;;;6.67;3.33;;;7.00;99.90;;;;;;4850031;29;20198;-87
2024/02/04 20:21:41;;;;;;;4.27;3.00;;;7.00;99.90;;;;;;4668452;30;20232;-84
2024/02/04 20:52:06;;;;;;;4.93;3.03;;;7.00;99.90;;;;;;4590121;30;20229;-88
2024/02/04 21:17:43;;;;;;;5.80;3.30;;;6.80;99.90;;;;;;4731247;29;20421;-85
2024/02/04 21:37:37;;;;;;;6.63;3.67;;;6.70;99.90;;;;;;4695006;29;20625;-87
2024/02/04 22:03:12;;;;;;;7.80;3.57;;;6.70;99.90;;;;;;4731211;29;20749;-87
2024/02/04 22:23:22;;;;;;;8.93;3.07;;;6.90;99.90;;;;;;4594797;30;21098;-86
2024/02/04 22:58:55;;;;;;;6.53;3.07;;;6.80;99.90;;;;;;4715679;29;20644;-88
2024/02/04 23:24:28;;;;;;;7.27;3.60;;;6.30;99.90;;;;;;4739428;29;20277;-86
2024/02/04 23:54:15;;;;;;;6.23;4.10;;;6.00;99.90;;;;;;4555938;30;20316;-89
